Time;durP1;ratioP1;P1;durP2;ratioP2;P2;SDS_P1;SDS_P2;PMS_P1;PMS_P2;Temp;Humidity;BMP_temperature;BMP_pressure;BME280_temperature;BME280_humidity;BME280_pressure;Samples;Min_cycle;Max_cycle;Signal;HPM_P1;HPM_P2
2022/07/06 00:01:18;;;;;;;63.10;29.52;;;;;;;18.76;80.86;99670.22;4911202;29;20196;-72
2022/07/06 00:03:44;;;;;;;57.30;28.65;;;;;;;18.75;80.90;99669.41;4909400;29;20601;-71
2022/07/06 00:06:10;;;;;;;72.10;29.35;;;;;;;18.73;80.78;99671.69;4909825;29;20511;-72
2022/07/06 00:08:37;;;;;;;66.25;28.90;;;;;;;18.72;81.12;99670.06;4909888;29;20082;-71
2022/07/06 00:11:03;;;;;;;64.20;30.03;;;;;;;18.71;81.12;99674.81;4922975;29;20052;-72
2022/07/06 00:13:31;;;;;;;74.75;32.35;;;;;;;18.72;81.07;99661.75;4908316;29;20804;-72
2022/07/06 00:15:57;;;;;;;62.20;27.92;;;;;;;18.73;81.65;99659.81;4906484;29;20063;-71
2022/07/06 00:18:23;;;;;;;71.35;29.58;;;;;;;18.73;81.40;99654.28;4906946;29;20138;-72
2022/07/06 00:20:49;;;;;;;61.28;31.65;;;;;;;18.75;81.64;99657.53;4908313;29;20058;-72
2022/07/06 00:23:15;;;;;;;59.58;32.35;;;;;;;18.70;81.61;99655.75;4907073;29;20052;-71
2022/07/06 00:25:41;;;;;;;60.88;30.88;;;;;;;18.67;81.97;99661.97;4908948;29;20048;-71
2022/07/06 00:28:07;;;;;;;69.03;31.55;;;;;;;18.65;81.97;99655.94;4923427;29;20099;-68
2022/07/06 00:30:35;;;;;;;81.07;35.67;;;;;;;18.65;82.04;99655.94;4893576;29;20056;-69
2022/07/06 00:33:01;;;;;;;69.53;33.22;;;;;;;18.62;82.01;99651.88;4905424;29;20084;-70
2022/07/06 00:35:28;;;;;;;73.57;32.13;;;;;;;18.63;82.14;99642.41;4905590;29;20206;-70
2022/07/06 00:37:54;;;;;;;58.65;30.33;;;;;;;18.68;81.98;99636.72;4908253;29;20059;-70
2022/07/06 00:40:20;;;;;;;56.67;30.63;;;;;;;18.70;81.83;99641.91;4908437;29;20540;-71
2022/07/06 00:42:48;;;;;;;58.25;31.40;;;;;;;18.71;81.91;99640.75;4908518;29;20160;-71
2022/07/06 00:45:16;;;;;;;56.03;32.05;;;;;;;18.75;81.60;99647.28;4906412;29;20051;-70
2022/07/06 00:47:44;;;;;;;59.88;32.60;;;;;;;18.76;81.52;99654.44;4909980;29;20499;-70
2022/07/06 00:50:18;;;;;;;62.08;31.60;;;;;;;18.76;81.76;99650.84;4908427;29;20055;-69
2022/07/06 00:52:46;;;;;;;54.33;30.30;;;;;;;18.73;81.64;99665.34;4908153;29;20462;-70
2022/07/06 00:55:13;;;;;;;64.80;36.03;;;;;;;18.69;81.65;99657.72;4904927;29;20048;-70
2022/07/06 00:57:40;;;;;;;63.10;33.28;;;;;;;18.70;82.06;99664.88;4904285;29;20053;-70
2022/07/06 01:00:09;;;;;;;59.42;33.35;;;;;;;18.69;81.90;99662.44;4908920;29;20151;-70
2022/07/06 01:02:35;;;;;;;67.07;36.03;;;;;;;18.65;82.37;99655.94;4905864;29;20056;-70
2022/07/06 01:05:04;;;;;;;82.88;35.35;;;;;;;18.61;82.41;99655.78;4907172;29;20080;-71
2022/07/06 01:07:30;;;;;;;79.40;37.70;;;;;;;18.62;82.47;99660.19;4904967;29;20052;-70
2022/07/06 01:09:57;;;;;;;75.67;38.30;;;;;;;18.54;82.73;99652.75;4905072;29;20050;-70
2022/07/06 01:12:24;;;;;;;84.28;43.50;;;;;;;18.63;82.70;99650.72;4905476;29;20079;-70
2022/07/06 01:14:50;;;;;;;73.25;39.25;;;;;;;18.62;82.88;99646.34;4906074;29;20126;-70
2022/07/06 01:17:17;;;;;;;92.97;43.15;;;;;;;18.63;82.99;99650.72;4907980;29;20071;-70
2022/07/06 01:19:43;;;;;;;98.55;43.88;;;;;;;18.66;82.52;99650.09;4906423;29;20449;-71
2022/07/06 01:22:11;;;;;;;89.13;41.70;;;;;;;18.74;82.48;99650.38;4891855;29;20063;-70
2022/07/06 01:24:38;;;;;;;103.88;51.00;;;;;;;18.78;82.14;99651.31;4892742;29;20047;-71
2022/07/06 01:27:05;;;;;;;95.18;49.80;;;;;;;18.79;81.97;99648.22;4905095;29;20052;-70
2022/07/06 01:29:32;;;;;;;112.85;49.95;;;;;;;18.83;82.00;99657.47;4906804;29;20044;-70
2022/07/06 01:31:58;;;;;;;84.25;48.05;;;;;;;18.82;81.56;99647.53;4902390;29;20528;-70
2022/07/06 01:34:26;;;;;;;92.53;46.70;;;;;;;18.94;81.45;99651.56;4907440;29;20479;-70
2022/07/06 01:36:52;;;;;;;90.87;48.07;;;;;;;18.93;80.87;99644.41;4908618;29;20048;-70
2022/07/06 01:39:20;;;;;;;90.07;43.72;;;;;;;19.01;80.75;99657.41;4893016;29;20048;-70
2022/07/06 01:41:47;;;;;;;91.40;46.60;;;;;;;19.02;80.45;99659.03;4906929;29;20550;-70
2022/07/06 01:44:13;;;;;;;105.95;44.40;;;;;;;19.02;80.58;99663.75;4921545;29;20047;-70
2022/07/06 01:46:39;;;;;;;108.97;51.55;;;;;;;18.99;80.75;99660.53;4906674;29;20048;-70
2022/07/06 01:49:08;;;;;;;90.75;46.00;;;;;;;18.97;80.29;99662.78;4888779;29;20044;-70
2022/07/06 01:51:34;;;;;;;77.20;43.85;;;;;;;19.01;80.38;99659.38;4908333;29;20056;-69
2022/07/06 01:54:00;;;;;;;80.40;39.60;;;;;;;19.02;80.34;99669.31;4907758;29;20319;-71
2022/07/06 01:56:29;;;;;;;;;;;;;;;19.01;80.30;99660.16;4909019;29;20147;-71
2022/07/06 01:58:59;;;;;;;87.78;41.08;;;;;;;19.03;80.07;99662.63;4924765;29;19927;-69
2022/07/06 02:01:25;;;;;;;91.43;43.38;;;;;;;19.05;80.16;99671.41;4907239;29;20091;-70
2022/07/06 02:03:51;;;;;;;85.72;43.47;;;;;;;19.07;80.20;99678.25;4908269;29;20610;-69
2022/07/06 02:06:17;;;;;;;92.40;41.17;;;;;;;19.08;80.05;99670.72;4907755;29;20047;-70
2022/07/06 02:08:47;;;;;;;91.70;44.08;;;;;;;19.08;80.38;99670.72;4925109;29;20070;-70
2022/07/06 02:11:13;;;;;;;68.22;37.03;;;;;;;19.09;80.51;99669.56;4892076;29;20075;-71
2022/07/06 02:13:41;;;;;;;77.07;34.10;;;;;;;19.14;80.65;99663.84;4908153;29;20052;-71
2022/07/06 02:16:30;;;;;;;64.10;35.25;;;;;;;19.17;80.17;99667.91;4897697;29;20050;-71
2022/07/06 02:18:56;;;;;;;76.35;37.35;;;;;;;19.20;80.22;99673.59;4911079;29;20376;-70
2022/07/06 02:21:23;;;;;;;68.82;38.08;;;;;;;19.24;79.62;99670.97;4911138;29;20503;-70
2022/07/06 02:23:49;;;;;;;75.88;40.58;;;;;;;19.22;79.30;99665.75;4908298;29;20059;-70
2022/07/06 02:26:16;;;;;;;72.03;37.22;;;;;;;19.34;79.14;99678.06;4911163;29;20078;-70
2022/07/06 02:28:48;;;;;;;69.93;37.17;;;;;;;19.41;78.84;99675.53;4908977;29;20063;-69
2022/07/06 02:31:14;;;;;;;77.75;38.55;;;;;;;19.49;78.22;99685.78;4906611;29;20055;-70
2022/07/06 02:33:41;;;;;;;79.47;36.08;;;;;;;19.59;77.46;99690.09;4928128;29;20630;-71
2022/07/06 02:36:07;;;;;;;66.83;36.77;;;;;;;19.68;77.49;99687.25;4912932;29;20048;-70
2022/07/06 02:38:33;;;;;;;65.72;36.15;;;;;;;19.71;77.03;99692.13;4925095;29;20048;-70
2022/07/06 02:41:00;;;;;;;68.38;36.97;;;;;;;19.69;76.73;99688.88;4927453;29;20048;-70
2022/07/06 02:43:26;;;;;;;72.77;39.90;;;;;;;19.67;77.14;99688.41;4928274;29;20542;-69
2022/07/06 02:45:54;;;;;;;67.85;36.75;;;;;;;19.62;77.84;99683.06;4910793;29;20056;-70
2022/07/06 02:48:21;;;;;;;68.70;38.40;;;;;;;19.62;77.66;99680.31;4911078;29;20503;-70
2022/07/06 02:50:49;;;;;;;74.75;40.00;;;;;;;19.62;77.66;99686.63;4909573;29;20427;-70
2022/07/06 02:53:18;;;;;;;68.60;37.45;;;;;;;19.63;77.88;99681.91;4909517;29;20131;-69
2022/07/06 02:55:46;;;;;;;79.07;39.42;;;;;;;19.64;77.48;99687.09;4909762;29;20059;-72
2022/07/06 02:58:12;;;;;;;78.22;39.30;;;;;;;19.70;77.52;99690.50;4924479;29;20424;-69
2022/07/06 03:00:38;;;;;;;73.32;37.20;;;;;;;19.81;76.79;99685.34;4925508;29;20052;-70
2022/07/06 03:03:07;;;;;;;68.60;39.85;;;;;;;19.90;76.12;99688.03;4923267;29;20155;-70
2022/07/06 03:05:34;;;;;;;72.78;38.65;;;;;;;19.94;75.84;99684.25;4907696;29;20050;-70
2022/07/06 03:08:00;;;;;;;78.57;40.17;;;;;;;19.99;75.44;99683.25;4910510;29;20107;-71
2022/07/06 03:10:27;;;;;;;75.20;39.63;;;;;;;20.09;75.32;99676.44;4906778;29;20518;-71
2022/07/06 03:12:53;;;;;;;73.40;39.38;;;;;;;20.20;75.50;99676.81;4925089;29;20320;-69
2022/07/06 03:15:19;;;;;;;79.93;39.55;;;;;;;20.27;75.13;99675.09;4909060;29;20059;-70
2022/07/06 03:17:46;;;;;;;77.43;40.38;;;;;;;20.35;75.22;99672.59;4908463;29;20048;-71
2022/07/06 03:20:15;;;;;;;79.95;44.10;;;;;;;20.41;75.00;99673.97;4924161;29;20788;-71
2022/07/06 03:22:41;;;;;;;80.95;41.20;;;;;;;20.49;74.90;99666.69;4909651;29;20063;-73
2022/07/06 03:25:10;;;;;;;77.65;40.65;;;;;;;20.55;74.17;99655.03;4907334;29;20540;-72
2022/07/06 03:27:38;;;;;;;79.90;42.20;;;;;;;20.66;74.00;99657.34;4911551;29;20487;-72
2022/07/06 03:30:05;;;;;;;91.78;41.80;;;;;;;20.71;74.11;99662.66;4912788;29;20060;-71
2022/07/06 03:32:34;;;;;;;94.00;43.63;;;;;;;20.78;73.70;99660.13;4926256;29;20520;-72
2022/07/06 03:35:03;;;;;;;77.72;42.63;;;;;;;20.88;73.43;99664.44;4910888;29;20053;-72
2022/07/06 03:37:31;;;;;;;72.32;41.58;;;;;;;20.94;72.98;99660.25;4908044;29;20451;-72
2022/07/06 03:39:58;;;;;;;77.55;41.80;;;;;;;21.02;72.39;99666.06;4908446;29;20460;-71
2022/07/06 03:42:24;;;;;;;72.93;40.75;;;;;;;21.07;72.22;99669.41;4912604;29;20515;-72
2022/07/06 03:44:51;;;;;;;59.95;36.90;;;;;;;21.15;71.22;99675.19;4906955;29;20052;-71
2022/07/06 03:47:18;;;;;;;77.32;39.30;;;;;;;21.18;70.54;99657.81;4924904;29;20052;-72
2022/07/06 03:49:45;;;;;;;70.28;36.78;;;;;;;21.21;70.43;99662.66;4895301;29;20047;-73
2022/07/06 03:52:11;;;;;;;66.40;39.17;;;;;;;21.24;69.91;99662.78;4908649;29;20096;-71
2022/07/06 03:54:45;;;;;;;71.60;37.20;;;;;;;21.33;69.51;99662.63;4912377;29;20363;-72
2022/07/06 03:57:17;;;;;;;77.75;39.22;;;;;;;21.43;69.36;99663.31;4926555;29;20037;-71
2022/07/06 03:59:43;;;;;;;76.72;39.42;;;;;;;21.53;69.09;99660.03;4878089;29;20088;-71
2022/07/06 04:02:09;;;;;;;74.43;38.17;;;;;;;21.66;68.53;99666.41;4892163;29;20512;-71
2022/07/06 04:04:36;;;;;;;70.90;39.60;;;;;;;21.72;68.13;99667.75;4908528;29;20052;-71
2022/07/06 04:07:03;;;;;;;87.13;38.50;;;;;;;21.82;68.03;99666.44;4893139;29;20044;-71
2022/07/06 04:09:30;;;;;;;75.72;40.03;;;;;;;21.85;67.54;99670.50;4909063;29;20050;-72
2022/07/06 04:11:58;;;;;;;73.15;38.20;;;;;;;21.89;67.46;99668.59;4922381;29;20066;-71
2022/07/06 04:14:27;;;;;;;81.10;39.33;;;;;;;21.91;67.27;99669.88;4923455;29;20099;-73
2022/07/06 04:16:53;;;;;;;63.40;37.63;;;;;;;21.98;66.80;99668.44;4923380;29;20107;-72
2022/07/06 04:19:20;;;;;;;74.35;38.53;;;;;;;22.00;66.85;99678.06;4908833;29;20151;-72
2022/07/06 04:21:46;;;;;;;73.57;39.20;;;;;;;22.01;66.61;99667.72;4909498;29;20059;-73
2022/07/06 04:24:13;;;;;;;76.03;39.97;;;;;;;22.01;66.79;99662.16;4924456;29;20143;-72
2022/07/06 04:26:39;;;;;;;66.90;37.83;;;;;;;22.03;66.88;99663.44;4907694;29;20051;-72
2022/07/06 04:29:07;;;;;;;65.78;37.08;;;;;;;22.07;66.51;99671.91;4893076;29;20167;-72
2022/07/06 04:31:33;;;;;;;67.68;37.25;;;;;;;22.12;66.15;99662.47;4906527;29;20119;-72
2022/07/06 04:33:59;;;;;;;67.57;36.30;;;;;;;22.16;65.92;99674.50;4890679;29;20048;-73
2022/07/06 04:36:26;;;;;;;66.78;36.25;;;;;;;22.24;65.51;99667.94;4907705;29;20052;-72
2022/07/06 04:38:53;;;;;;;68.15;37.08;;;;;;;22.38;65.03;99665.53;4910830;29;20079;-72
2022/07/06 04:41:20;;;;;;;63.53;35.85;;;;;;;22.47;64.79;99662.59;4907372;29;20098;-72
2022/07/06 04:43:46;;;;;;;57.08;32.70;;;;;;;22.55;64.16;99671.16;4909546;29;20056;-72
2022/07/06 04:46:19;;;;;;;66.43;35.90;;;;;;;22.58;64.07;99665.69;4922934;29;20083;-72
2022/07/06 04:48:47;;;;;;;58.63;35.95;;;;;;;22.64;63.94;99663.44;4908798;29;20060;-72
2022/07/06 04:51:19;;;;;;;69.55;35.33;;;;;;;22.72;63.50;99670.00;4906211;29;20103;-73
2022/07/06 04:53:45;;;;;;;67.87;36.53;;;;;;;22.77;63.65;99662.16;4921405;29;20075;-73
2022/07/06 04:56:11;;;;;;;57.38;33.15;;;;;;;22.78;63.23;99662.97;4891509;29;20472;-72
2022/07/06 04:58:39;;;;;;;52.25;32.35;;;;;;;22.69;62.87;99646.44;4924192;29;20092;-73
2022/07/06 05:01:08;;;;;;;62.40;31.98;;;;;;;22.73;63.01;99654.91;4905801;29;20234;-73
2022/07/06 05:03:39;;;;;;;52.47;31.77;;;;;;;22.82;62.63;99658.28;4903911;29;20068;-71
2022/07/06 05:06:07;;;;;;;61.75;33.92;;;;;;;22.93;62.48;99650.16;4908294;29;20074;-73
2022/07/06 05:08:33;;;;;;;;;;;;;;;23.00;62.58;99652.31;4909391;29;20067;-73
2022/07/06 05:10:59;;;;;;;60.40;30.58;;;;;;;23.05;62.16;99655.63;4925355;29;19927;-72
2022/07/06 05:13:25;;;;;;;59.65;32.10;;;;;;;23.12;62.06;99652.19;4924039;29;20130;-73
2022/07/06 05:15:51;;;;;;;56.67;31.48;;;;;;;23.23;61.38;99658.84;4892942;29;20052;-72
2022/07/06 05:18:18;;;;;;;58.72;30.35;;;;;;;23.35;61.00;99649.56;4907768;29;20079;-72
2022/07/06 05:20:45;;;;;;;65.25;36.05;;;;;;;23.44;60.53;99645.75;4903905;29;20052;-72
2022/07/06 05:23:13;;;;;;;47.20;26.13;;;;;;;23.51;59.46;99645.88;4901222;29;20048;-72
2022/07/06 05:25:39;;;;;;;51.63;27.85;;;;;;;23.61;59.18;99638.91;4906974;29;20044;-71
2022/07/06 05:28:05;;;;;;;48.40;25.48;;;;;;;23.69;58.86;99645.44;4923684;29;20056;-72
2022/07/06 05:30:32;;;;;;;43.92;23.17;;;;;;;23.76;58.19;99643.59;4908644;29;20048;-72
2022/07/06 05:32:59;;;;;;;54.58;27.00;;;;;;;23.82;57.83;99644.13;4907957;29;20060;-72
2022/07/06 05:35:25;;;;;;;55.37;26.53;;;;;;;23.87;57.56;99643.00;4909431;29;20100;-71
2022/07/06 05:37:53;;;;;;;50.03;25.88;;;;;;;23.94;57.59;99641.16;4907596;29;20452;-72
2022/07/06 05:40:19;;;;;;;56.17;31.98;;;;;;;24.01;57.80;99645.25;4924255;29;20075;-73
2022/07/06 05:42:46;;;;;;;60.35;26.83;;;;;;;24.02;57.60;99642.13;4923989;29;20052;-72
2022/07/06 05:45:12;;;;;;;54.88;27.02;;;;;;;24.12;57.10;99642.69;4923563;29;20044;-72
2022/07/06 05:50:23;;;;;;;55.95;26.13;;;;;;;24.39;56.54;99649.16;4909551;29;20060;-73
2022/07/06 05:52:59;;;;;;;51.72;25.55;;;;;;;24.44;56.36;99648.84;4905278;29;20119;-73
2022/07/06 05:55:26;;;;;;;48.85;25.02;;;;;;;24.50;56.40;99641.75;4906481;29;20060;-72
2022/07/06 05:57:53;;;;;;;42.08;23.98;;;;;;;24.66;56.23;99645.59;4908065;29;20505;-72
2022/07/06 06:00:21;;;;;;;43.85;23.52;;;;;;;24.75;55.67;99646.16;4910174;29;20075;-73
2022/07/06 06:02:53;;;;;;;42.20;22.15;;;;;;;24.86;54.50;99652.75;4907579;29;20611;-72
2022/07/06 06:05:19;;;;;;;;;;;;;;;24.83;53.70;99650.69;4907020;29;20686;-72
2022/07/06 06:07:49;;;;;;;34.47;18.05;;;;;;;24.80;53.12;99648.66;4907217;29;19933;-74
2022/07/06 06:10:19;;;;;;;34.45;20.08;;;;;;;24.88;53.20;99644.78;4924043;29;20076;-73
2022/07/06 06:12:48;;;;;;;38.30;21.05;;;;;;;24.95;52.74;99646.88;4905707;29;20054;-72
2022/07/06 06:15:14;;;;;;;37.40;20.15;;;;;;;24.94;52.97;99641.69;4896868;29;20299;-72
2022/07/06 06:17:40;;;;;;;40.00;21.63;;;;;;;25.01;52.97;99637.00;4878514;29;20059;-73
2022/07/06 06:20:09;;;;;;;40.20;20.00;;;;;;;25.04;52.50;99635.41;4907435;29;20068;-71
2022/07/06 06:22:45;;;;;;;42.47;20.27;;;;;;;25.13;52.64;99641.56;4905677;29;20540;-73
2022/07/06 06:25:11;;;;;;;38.17;21.27;;;;;;;25.22;52.24;99635.66;4909019;29;20048;-73
2022/07/06 06:27:39;;;;;;;37.50;20.87;;;;;;;25.29;52.17;99638.59;4908128;29;20052;-72
2022/07/06 06:30:06;;;;;;;38.85;21.55;;;;;;;25.39;52.04;99630.69;4906508;29;20040;-72
2022/07/06 06:32:32;;;;;;;41.72;22.75;;;;;;;25.46;51.81;99625.19;4922046;29;20177;-73
2022/07/06 06:34:58;;;;;;;45.42;21.75;;;;;;;25.73;50.98;99630.72;4905053;29;20135;-72
2022/07/06 06:37:24;;;;;;;38.28;23.13;;;;;;;25.92;50.72;99635.34;4907031;29;20498;-72
2022/07/06 06:39:50;;;;;;;44.33;25.37;;;;;;;26.04;50.77;99632.28;4923127;29;20061;-72
2022/07/06 06:42:16;;;;;;;43.67;22.63;;;;;;;26.21;50.45;99626.44;4900815;29;20040;-73
2022/07/06 06:44:44;;;;;;;45.23;25.47;;;;;;;26.38;50.53;99623.00;4904694;29;20135;-72
2022/07/06 06:47:10;;;;;;;39.28;25.33;;;;;;;26.50;49.85;99632.28;4905554;29;20052;-73
2022/07/06 06:49:36;;;;;;;54.05;28.17;;;;;;;26.47;50.18;99620.66;4908026;29;20048;-72
2022/07/06 06:52:03;;;;;;;54.55;27.98;;;;;;;26.53;50.33;99623.91;4897965;29;20056;-73
2022/07/06 06:54:29;;;;;;;50.10;28.15;;;;;;;26.72;49.81;99624.84;4901654;29;20484;-72
2022/07/06 06:56:55;;;;;;;48.55;28.20;;;;;;;27.01;49.58;99630.69;4908660;29;20070;-72
2022/07/06 06:59:21;;;;;;;62.22;31.85;;;;;;;27.13;49.31;99626.72;4910061;29;20044;-71
2022/07/06 07:01:48;;;;;;;52.22;31.05;;;;;;;27.21;49.02;99631.19;4910420;29;20063;-72
2022/07/06 07:04:15;;;;;;;53.60;30.27;;;;;;;27.38;48.64;99620.44;4892511;29;20055;-72
2022/07/06 07:06:41;;;;;;;56.30;31.67;;;;;;;27.37;48.72;99627.25;4900507;29;20040;-71
2022/07/06 07:09:07;;;;;;;55.35;28.73;;;;;;;27.38;48.79;99626.06;4922014;29;20056;-71
2022/07/06 07:11:33;;;;;;;53.90;31.23;;;;;;;27.47;49.31;99629.28;4907589;29;20056;-73
2022/07/06 07:14:00;;;;;;;53.83;32.42;;;;;;;27.62;49.01;99635.00;4906590;29;20126;-73
2022/07/06 07:16:26;;;;;;;62.83;35.42;;;;;;;27.65;49.09;99645.47;4908621;29;20388;-72
2022/07/06 07:18:54;;;;;;;53.47;33.77;;;;;;;27.66;48.37;99633.03;4908308;29;20135;-72
2022/07/06 07:21:20;;;;;;;60.03;36.65;;;;;;;27.71;48.40;99630.63;4922996;29;20349;-72
2022/07/06 07:23:46;;;;;;;64.70;34.17;;;;;;;27.86;48.67;99639.06;4908910;29;20508;-70
2022/07/06 07:26:12;;;;;;;58.42;36.78;;;;;;;27.98;48.78;99633.09;4906950;29;20103;-71
2022/07/06 07:28:38;;;;;;;65.55;35.05;;;;;;;28.00;49.01;99627.09;4910160;29;20466;-70
2022/07/06 07:31:04;;;;;;;58.10;33.28;;;;;;;27.87;49.11;99629.47;4907238;29;20044;-71
2022/07/06 07:33:30;;;;;;;66.97;32.00;;;;;;;28.12;48.09;99635.13;4904497;29;20556;-71
2022/07/06 07:35:58;;;;;;;60.80;34.67;;;;;;;28.37;47.80;99634.38;4891953;29;20304;-72
2022/07/06 07:38:24;;;;;;;63.25;36.03;;;;;;;28.55;47.12;99636.38;4903030;29;20520;-72
2022/07/06 07:40:54;;;;;;;58.17;35.28;;;;;;;28.79;46.90;99633.97;4909798;29;20064;-72
2022/07/06 07:43:20;;;;;;;65.63;35.35;;;;;;;28.89;46.89;99635.16;4907014;29;20052;-71
2022/07/06 07:45:47;;;;;;;68.65;35.42;;;;;;;28.86;46.97;99625.53;4908103;29;20051;-72
2022/07/06 07:48:15;;;;;;;55.80;32.80;;;;;;;28.91;46.94;99624.31;4907382;29;20072;-71
2022/07/06 07:50:41;;;;;;;57.13;32.80;;;;;;;29.06;46.60;99625.88;4906540;29;20088;-71
2022/07/06 07:53:08;;;;;;;61.93;33.30;;;;;;;28.79;47.38;99629.13;4907351;29;20249;-70
2022/07/06 07:55:34;;;;;;;58.33;33.40;;;;;;;28.30;48.71;99620.31;4906048;29;20389;-71
2022/07/06 07:58:00;;;;;;;49.80;33.03;;;;;;;27.85;49.86;99621.44;4904773;29;20144;-71
2022/07/06 08:00:28;;;;;;;54.60;32.63;;;;;;;27.54;50.55;99625.75;4903071;29;20052;-72
2022/07/06 08:02:54;;;;;;;64.10;31.48;;;;;;;27.46;50.75;99624.88;4561675;28;10000417;-71
2022/07/06 08:05:21;;;;;;;52.78;30.30;;;;;;;27.51;50.50;99627.31;4904020;29;20433;-71
2022/07/06 08:07:47;;;;;;;42.22;25.70;;;;;;;27.43;49.64;99632.09;4901634;29;20153;-69
2022/07/06 08:10:14;;;;;;;44.53;25.83;;;;;;;27.30;49.39;99631.63;4903995;29;20044;-71
2022/07/06 08:12:40;;;;;;;41.33;24.77;;;;;;;27.24;49.45;99630.41;4904461;29;20835;-72
2022/07/06 08:15:07;;;;;;;41.03;25.25;;;;;;;27.66;48.09;99625.38;4905125;29;20086;-72
2022/07/06 08:17:34;;;;;;;40.30;24.02;;;;;;;28.27;46.50;99627.53;4885549;29;20048;-71
2022/07/06 08:20:00;;;;;;;38.37;23.37;;;;;;;28.73;45.63;99614.69;4904083;29;20119;-72
2022/07/06 08:22:27;;;;;;;39.35;22.60;;;;;;;29.55;44.33;99623.34;4904711;29;20195;-70
2022/07/06 08:24:53;;;;;;;44.17;23.90;;;;;;;29.86;42.91;99620.75;4904129;29;20729;-70
2022/07/06 08:27:20;;;;;;;41.83;23.93;;;;;;;30.14;42.46;99624.63;4911885;29;20139;-72
2022/07/06 08:29:46;;;;;;;39.42;22.13;;;;;;;30.68;41.59;99620.56;4905822;29;20048;-72
2022/07/06 08:32:12;;;;;;;43.87;23.60;;;;;;;30.29;41.88;99610.44;4905003;29;20059;-71
2022/07/06 08:34:38;;;;;;;36.73;21.67;;;;;;;29.70;43.42;99620.44;4907284;29;20044;-71
2022/07/06 08:37:05;;;;;;;36.63;22.40;;;;;;;29.96;42.88;99621.06;4908479;29;20406;-71
2022/07/06 08:39:31;;;;;;;39.58;20.63;;;;;;;29.93;42.23;99621.91;4908288;29;20048;-71
2022/07/06 08:42:00;;;;;;;40.78;23.02;;;;;;;30.17;42.49;99628.63;4875553;29;20048;-71
2022/07/06 08:44:29;;;;;;;39.95;22.23;;;;;;;30.47;41.51;99620.75;4906373;29;20043;-70
2022/07/06 08:47:02;;;;;;;35.17;21.55;;;;;;;30.66;41.05;99617.38;4907739;29;20095;-71
2022/07/06 08:49:29;;;;;;;35.83;21.77;;;;;;;31.04;39.95;99618.59;4902968;29;20048;-72
2022/07/06 08:51:55;;;;;;;35.05;22.15;;;;;;;30.68;40.76;99622.59;4887390;29;20052;-71
2022/07/06 08:54:22;;;;;;;40.17;23.40;;;;;;;30.32;41.92;99620.88;4905655;29;20059;-71
2022/07/06 08:56:49;;;;;;;40.55;22.67;;;;;;;30.09;42.23;99599.69;4907115;29;20044;-71
2022/07/06 08:59:15;;;;;;;35.65;21.95;;;;;;;30.23;42.64;99612.88;4907272;29;20048;-71
2022/07/06 09:01:44;;;;;;;32.75;19.25;;;;;;;31.39;39.22;99608.94;4905514;29;20052;-71
2022/07/06 09:04:12;;;;;;;32.28;19.45;;;;;;;30.82;39.79;99608.34;4905470;29;20180;-71
2022/07/06 09:06:42;;;;;;;33.55;20.02;;;;;;;30.09;40.89;99607.34;4902051;29;20084;-72
2022/07/06 09:09:09;;;;;;;33.90;19.80;;;;;;;29.82;41.22;99602.25;4904194;29;20512;-71
2022/07/06 09:11:37;;;;;;;40.85;19.75;;;;;;;29.51;41.77;99596.41;4902548;29;20079;-71
2022/07/06 09:14:03;;;;;;;34.88;22.13;;;;;;;30.00;41.61;99597.31;4903962;29;20051;-72
2022/07/06 09:16:32;;;;;;;32.67;21.33;;;;;;;31.27;39.02;99601.81;4916863;29;20048;-71
2022/07/06 09:18:59;;;;;;;31.60;21.20;;;;;;;32.68;36.14;99610.25;4901994;29;20052;-72
2022/07/06 09:21:27;;;;;;;28.33;16.83;;;;;;;33.15;33.61;99604.94;4902152;29;20058;-71
2022/07/06 09:23:54;;;;;;;29.02;16.83;;;;;;;33.23;33.71;99597.91;4903169;29;20075;-72
2022/07/06 09:26:21;;;;;;;25.55;16.83;;;;;;;33.47;32.93;99607.16;4899171;29;20063;-72
2022/07/06 09:28:47;;;;;;;26.42;16.83;;;;;;;33.65;32.72;99597.44;4898225;29;20470;-71
2022/07/06 09:31:13;;;;;;;34.90;17.15;;;;;;;33.87;32.28;99603.44;4902303;29;20052;-71
2022/07/06 09:33:52;;;;;;;24.67;15.50;;;;;;;34.13;31.31;99591.50;4900452;29;20091;-70
2022/07/06 09:36:40;;;;;;;26.60;16.15;;;;;;;34.54;31.05;99592.94;4896924;29;20308;-71
2022/07/06 09:39:25;;;;;;;21.05;15.60;;;;;;;35.02;29.58;99590.44;4903190;29;20111;-70
2022/07/06 09:41:54;;;;;;;25.83;16.13;;;;;;;35.18;29.58;99588.78;4898328;29;20193;-73
2022/07/06 09:44:25;;;;;;;22.65;15.65;;;;;;;35.04;29.79;99585.09;4902086;29;20055;-71
2022/07/06 09:46:51;;;;;;;28.92;15.93;;;;;;;34.83;30.27;99585.69;4900432;29;20075;-71
2022/07/06 09:49:19;;;;;;;24.67;16.42;;;;;;;34.36;30.89;99599.03;4902796;29;20109;-71
2022/07/06 09:51:47;;;;;;;27.45;17.50;;;;;;;34.62;30.89;99585.81;4901736;29;20143;-73
2022/07/06 09:54:15;;;;;;;28.42;16.65;;;;;;;34.85;30.69;99586.84;4880275;29;20064;-73
2022/07/06 09:56:42;;;;;;;30.45;17.08;;;;;;;34.38;31.21;99590.88;4904256;29;20063;-74
2022/07/06 09:59:09;;;;;;;23.25;16.20;;;;;;;33.99;31.50;99589.84;4907180;29;20067;-69
2022/07/06 10:01:36;;;;;;;25.38;17.17;;;;;;;32.94;32.77;99590.81;4905029;29;20052;-72
2022/07/06 10:04:02;;;;;;;28.17;17.85;;;;;;;32.21;34.29;99585.56;4906184;29;20056;-72
2022/07/06 10:06:28;;;;;;;25.13;16.42;;;;;;;33.22;32.72;99582.16;4919753;29;20052;-71
2022/07/06 10:08:58;;;;;;;22.60;15.13;;;;;;;34.36;30.89;99582.81;4888922;29;20059;-73
2022/07/06 10:11:25;;;;;;;26.23;16.50;;;;;;;34.97;29.80;99576.75;4904711;29;20044;-73
2022/07/06 10:13:55;;;;;;;28.75;16.05;;;;;;;34.44;30.56;99576.97;4906272;29;20410;-72
2022/07/06 10:16:22;;;;;;;27.67;16.00;;;;;;;33.63;31.84;99565.94;4905676;29;20052;-73
2022/07/06 10:18:50;;;;;;;25.73;15.52;;;;;;;32.49;33.59;99577.06;4907215;29;20056;-73
2022/07/06 10:21:17;;;;;;;21.30;15.77;;;;;;;31.41;36.06;99581.06;4904625;29;20052;-71
2022/07/06 10:23:44;;;;;;;25.90;16.45;;;;;;;30.77;36.74;99571.34;4904067;29;20139;-73
2022/07/06 10:26:12;;;;;;;24.48;16.52;;;;;;;30.53;37.72;99562.66;4909241;29;20052;-72
2022/07/06 10:28:39;;;;;;;25.17;17.05;;;;;;;30.35;38.50;99555.19;4906937;29;20076;-72
2022/07/06 10:31:06;;;;;;;26.10;16.33;;;;;;;30.08;38.56;99561.44;4908648;29;20064;-74
2022/07/06 10:33:33;;;;;;;30.98;16.30;;;;;;;30.31;38.80;99557.25;4911289;29;20048;-72
2022/07/06 10:35:59;;;;;;;24.23;16.65;;;;;;;30.64;38.08;99559.75;4907840;29;20537;-72
2022/07/06 10:38:31;;;;;;;22.83;17.13;;;;;;;31.35;36.88;99553.72;4891875;29;20476;-72
2022/07/06 10:41:02;;;;;;;23.30;15.95;;;;;;;33.07;34.02;99559.00;4908723;29;20239;-72
2022/07/06 10:43:36;;;;;;;25.65;15.45;;;;;;;33.38;33.62;99556.72;4906598;29;20048;-70
2022/07/06 10:46:07;;;;;;;30.80;17.42;;;;;;;32.91;34.11;99554.06;4909105;29;20071;-72
2022/07/06 10:48:37;;;;;;;28.77;18.65;;;;;;;32.04;36.14;99550.72;4912300;29;20108;-73
2022/07/06 10:51:04;;;;;;;33.45;18.33;;;;;;;31.49;37.18;99545.06;4910531;29;20555;-71
2022/07/06 10:53:33;;;;;;;22.90;17.98;;;;;;;31.49;37.30;99547.88;4890705;29;20051;-73
2022/07/06 10:56:02;;;;;;;25.65;18.60;;;;;;;31.56;37.79;99544.16;4909581;29;20054;-73
2022/07/06 10:58:39;;;;;;;28.25;19.58;;;;;;;31.31;38.00;99527.56;4923626;29;20056;-72
2022/07/06 11:01:06;;;;;;;30.45;19.52;;;;;;;31.08;38.54;99532.66;4923401;29;20476;-70
2022/07/06 11:03:34;;;;;;;32.42;19.67;;;;;;;30.90;39.25;99537.72;4908516;29;20056;-70
2022/07/06 11:06:02;;;;;;;31.27;19.50;;;;;;;30.79;39.96;99540.69;4908834;29;20048;-70
2022/07/06 11:08:46;;;;;;;34.33;19.88;;;;;;;30.79;39.11;99547.09;4908248;29;20043;-71
2022/07/06 11:11:14;;;;;;;26.08;18.15;;;;;;;30.52;39.29;99546.97;4905718;29;20048;-71
2022/07/06 11:13:52;;;;;;;28.40;17.33;;;;;;;30.88;38.53;99557.88;4909100;29;20051;-70
2022/07/06 11:16:19;;;;;;;30.08;18.00;;;;;;;32.50;35.31;99551.16;4904797;29;20107;-69
2022/07/06 11:18:58;;;;;;;31.10;16.40;;;;;;;33.69;33.09;99538.66;4909309;29;20051;-71
2022/07/06 11:21:34;;;;;;;22.83;15.63;;;;;;;33.40;33.21;99544.16;4907987;29;20603;-70